Terminal Aerodrome Forecast
Issued by NWS

Home | Current Version | Previous Version | Text Only | Print | Product List | Glossary Off
Versions: 1 2 3 4 5 6 7 8 9 10 11 12 13 14 15 16 17 18 19 20 21 22 23 24 25 26 27 28 29 30 31 32 33 34
957 FTUS41 KBOX 202340 TAFFMH TAF KFMH 202340Z 2100/2124 00000KT P6SM OVC025 FM211100 VRB03KT P6SM OVC010 FM211300 19004KT 3SM BR OVC010 FM211700 22007KT P6SM BKN008 FM211800 23007KT P6SM BKN045 FM212200 25006KT P6SM SCT120=

USA.gov is the U.S. government's official web portal to all federal, state and local government web resources and services.